Time;durP1;ratioP1;P1;durP2;ratioP2;P2;SDS_P1;SDS_P2;PMS_P1;PMS_P2;Temp;Humidity;BMP_temperature;BMP_pressure;BME280_temperature;BME280_humidity;BME280_pressure;Samples;Min_cycle;Max_cycle;Signal;HPM_P1;HPM_P2
2021/04/28 00:01:54;;;;;;;5.23;1.93;;;;;;;;;;5094342;28;20024;-67
2021/04/28 00:04:19;;;;;;;4.63;1.90;;;;;;;;;;5095535;28;20124;-67
2021/04/28 00:06:48;;;;;;;7.83;2.23;;;;;;;;;;5095576;28;20028;-67
2021/04/28 00:09:13;;;;;;;5.43;1.60;;;;;;;;;;5099171;28;20027;-67
2021/04/28 00:11:38;;;;;;;4.07;2.03;;;;;;;;;;5080913;28;20781;-67
2021/04/28 00:14:04;;;;;;;4.83;1.80;;;;;;;;;;5096253;28;20625;-67
2021/04/28 00:16:30;;;;;;;4.83;1.73;;;;;;;;;;5095655;28;20116;-67
2021/04/28 00:18:55;;;;;;;8.70;2.07;;;;;;;;;;5095266;28;20779;-67
2021/04/28 00:21:21;;;;;;;5.63;2.20;;;;;;;;;;5095242;28;20430;-67
2021/04/28 00:23:46;;;;;;;7.17;1.87;;;;;;;;;;5094923;28;20039;-67
2021/04/28 00:26:13;;;;;;;4.27;2.03;;;;;;;;;;5092892;28;20028;-67
2021/04/28 00:28:39;;;;;;;4.93;1.80;;;;;;;;;;5094420;28;20032;-67
2021/04/28 00:31:04;;;;;;;4.10;1.80;;;;;;;;;;5090336;28;20289;-67
2021/04/28 00:33:30;;;;;;;7.10;2.20;;;;;;;;;;5088706;28;20092;-67
2021/04/28 00:35:55;;;;;;;4.90;2.03;;;;;;;;;;5093507;28;20951;-67
2021/04/28 00:38:20;;;;;;;5.70;2.03;;;;;;;;;;5093791;28;20019;-67
2021/04/28 00:40:46;;;;;;;6.93;1.60;;;;;;;;;;5093773;28;20020;-67
2021/04/28 00:43:11;;;;;;;4.43;1.90;;;;;;;;;;5094313;28;20031;-67
2021/04/28 00:45:37;;;;;;;12.23;2.13;;;;;;;;;;5084991;28;20140;-67
2021/04/28 00:48:03;;;;;;;4.37;1.87;;;;;;;;;;5104576;28;20038;-67
2021/04/28 00:50:30;;;;;;;4.70;2.10;;;;;;;;;;5091744;28;20026;-67
2021/04/28 00:52:56;;;;;;;3.70;1.67;;;;;;;;;;5089109;28;20262;-67
2021/04/28 00:55:21;;;;;;;5.37;1.60;;;;;;;;;;5094779;28;20679;-67
2021/04/28 00:57:46;;;;;;;4.30;2.03;;;;;;;;;;5094696;28;20111;-67
2021/04/28 01:00:14;;;;;;;3.23;1.47;;;;;;;;;;5094831;28;20092;-67
2021/04/28 01:02:39;;;;;;;3.10;1.47;;;;;;;;;;5091919;28;20124;-67
2021/04/28 01:05:05;;;;;;;3.93;1.93;;;;;;;;;;5092062;28;20385;-67
2021/04/28 01:07:31;;;;;;;4.07;1.60;;;;;;;;;;5093060;28;20020;-67
2021/04/28 01:09:56;;;;;;;3.83;1.80;;;;;;;;;;5094273;28;20353;-67
2021/04/28 01:12:22;;;;;;;5.27;1.50;;;;;;;;;;5091633;28;20020;-67
2021/04/28 01:14:48;;;;;;;2.67;1.50;;;;;;;;;;5082765;28;20488;-67
2021/04/28 01:17:13;;;;;;;3.87;1.57;;;;;;;;;;5092301;28;20111;-67
2021/04/28 01:19:38;;;;;;;5.10;1.87;;;;;;;;;;5084651;28;20685;-67
2021/04/28 01:22:04;;;;;;;4.00;1.50;;;;;;;;;;5092102;28;20028;-67
2021/04/28 01:24:29;;;;;;;4.43;2.00;;;;;;;;;;5094299;28;20062;-67
2021/04/28 01:26:57;;;;;;;6.43;1.80;;;;;;;;;;5094077;28;20051;-67
2021/04/28 01:29:23;;;;;;;3.67;1.60;;;;;;;;;;5094311;28;20020;-67
2021/04/28 01:31:49;;;;;;;2.53;1.20;;;;;;;;;;5088103;28;20743;-67
2021/04/28 01:34:15;;;;;;;4.87;2.00;;;;;;;;;;5091842;28;20266;-67
2021/04/28 01:36:40;;;;;;;3.77;1.50;;;;;;;;;;5089991;28;20028;-67
2021/04/28 01:39:08;;;;;;;4.07;1.40;;;;;;;;;;5079153;28;20104;-67
2021/04/28 01:41:43;;;;;;;3.60;1.53;;;;;;;;;;5092892;28;20024;-67
2021/04/28 01:44:10;;;;;;;6.13;1.60;;;;;;;;;;5093570;28;20269;-67
2021/04/28 01:46:36;;;;;;;4.27;1.57;;;;;;;;;;5087592;28;20270;-67
2021/04/28 01:49:02;;;;;;;4.23;1.70;;;;;;;;;;5092907;28;20742;-67
2021/04/28 01:51:28;;;;;;;2.90;1.50;;;;;;;;;;5093410;28;20028;-67
2021/04/28 01:53:53;;;;;;;4.77;1.70;;;;;;;;;;5092508;28;20040;-67
2021/04/28 01:56:20;;;;;;;4.80;1.47;;;;;;;;;;5088917;28;20291;-67
2021/04/28 01:58:46;;;;;;;4.60;1.70;;;;;;;;;;5093719;28;20052;-67
2021/04/28 02:01:11;;;;;;;5.67;2.07;;;;;;;;;;5092271;28;20266;-67
2021/04/28 02:03:37;;;;;;;3.80;1.53;;;;;;;;;;5091129;28;20028;-68
2021/04/28 02:06:04;;;;;;;5.27;1.93;;;;;;;;;;5093168;28;20028;-67
2021/04/28 02:08:29;;;;;;;5.73;1.67;;;;;;;;;;5090211;28;20024;-67
2021/04/28 02:10:57;;;;;;;3.13;1.60;;;;;;;;;;5093075;28;20757;-67
2021/04/28 02:13:22;;;;;;;5.53;1.80;;;;;;;;;;5087096;28;20028;-67
2021/04/28 02:15:48;;;;;;;6.17;1.70;;;;;;;;;;5086668;28;20278;-67
2021/04/28 02:18:15;;;;;;;5.43;1.93;;;;;;;;;;5089309;28;20480;-67
2021/04/28 02:20:40;;;;;;;4.23;1.60;;;;;;;;;;5092076;28;20286;-67
2021/04/28 02:23:06;;;;;;;4.87;1.80;;;;;;;;;;5091118;28;20293;-67
2021/04/28 02:25:32;;;;;;;6.43;1.93;;;;;;;;;;5086433;28;20020;-67
2021/04/28 02:27:57;;;;;;;3.60;1.60;;;;;;;;;;5091620;28;20032;-67
2021/04/28 02:30:24;;;;;;;3.60;1.70;;;;;;;;;;5092768;28;20050;-67
2021/04/28 02:32:49;;;;;;;3.47;1.30;;;;;;;;;;5087683;28;20460;-67
2021/04/28 02:35:15;;;;;;;3.83;2.00;;;;;;;;;;5090776;28;20281;-67
2021/04/28 02:37:42;;;;;;;4.17;1.63;;;;;;;;;;5091538;28;20029;-67
2021/04/28 02:40:09;;;;;;;4.00;1.70;;;;;;;;;;5092890;28;20115;-67
2021/04/28 02:42:34;;;;;;;3.57;1.43;;;;;;;;;;5086528;28;20323;-67
2021/04/28 02:45:00;;;;;;;4.07;1.93;;;;;;;;;;5085853;28;20274;-67
2021/04/28 02:47:27;;;;;;;3.57;1.73;;;;;;;;;;5091073;28;20032;-67
2021/04/28 02:49:53;;;;;;;4.67;1.70;;;;;;;;;;5092652;28;20258;-67
2021/04/28 02:52:19;;;;;;;7.97;1.83;;;;;;;;;;5092213;28;20265;-67
2021/04/28 02:54:45;;;;;;;3.90;1.80;;;;;;;;;;5092727;28;20043;-67
2021/04/28 02:57:11;;;;;;;4.27;2.00;;;;;;;;;;5092512;28;20270;-67
2021/04/28 02:59:37;;;;;;;4.87;1.73;;;;;;;;;;5093281;28;20035;-67
2021/04/28 03:02:02;;;;;;;5.63;1.73;;;;;;;;;;5092007;28;20274;-67
2021/04/28 03:04:28;;;;;;;5.73;2.07;;;;;;;;;;5091928;28;20044;-67
2021/04/28 03:06:53;;;;;;;3.70;1.90;;;;;;;;;;5086838;28;20106;-67
2021/04/28 03:09:19;;;;;;;3.53;1.53;;;;;;;;;;5092650;28;20377;-67
2021/04/28 03:11:44;;;;;;;4.37;1.80;;;;;;;;;;5091783;28;20028;-67
2021/04/28 03:14:10;;;;;;;6.33;1.80;;;;;;;;;;5092898;28;20022;-67
2021/04/28 03:16:36;;;;;;;6.97;1.70;;;;;;;;;;5092351;28;20043;-67
2021/04/28 03:19:03;;;;;;;4.73;1.60;;;;;;;;;;5089804;28;20020;-67
2021/04/28 03:21:29;;;;;;;3.17;1.50;;;;;;;;;;5091496;28;20036;-67
2021/04/28 03:23:54;;;;;;;4.17;1.93;;;;;;;;;;5084603;28;20258;-67
2021/04/28 03:26:20;;;;;;;6.33;1.67;;;;;;;;;;5098962;28;20296;-67
2021/04/28 03:28:45;;;;;;;4.03;1.63;;;;;;;;;;5091218;28;20031;-67
2021/04/28 03:31:10;;;;;;;3.73;1.70;;;;;;;;;;5085256;28;20028;-67
2021/04/28 03:33:35;;;;;;;5.47;2.20;;;;;;;;;;5091976;28;20077;-67
2021/04/28 03:36:01;;;;;;;4.80;1.70;;;;;;;;;;5090448;28;20026;-67
2021/04/28 03:38:26;;;;;;;4.80;1.83;;;;;;;;;;5092291;28;20360;-67
2021/04/28 03:40:51;;;;;;;3.80;1.63;;;;;;;;;;5091434;28;20077;-67
2021/04/28 03:43:17;;;;;;;4.97;1.87;;;;;;;;;;5091816;28;20020;-67
2021/04/28 03:45:42;;;;;;;3.67;1.70;;;;;;;;;;5087132;28;20024;-67
2021/04/28 03:48:07;;;;;;;5.90;1.67;;;;;;;;;;5092548;28;20480;-67
2021/04/28 03:50:33;;;;;;;5.03;1.63;;;;;;;;;;5086438;28;20063;-67
2021/04/28 03:52:58;;;;;;;5.10;2.00;;;;;;;;;;5091493;28;20456;-67
2021/04/28 03:55:24;;;;;;;4.67;1.83;;;;;;;;;;5086696;28;20036;-67
2021/04/28 03:57:49;;;;;;;4.00;1.80;;;;;;;;;;5092107;28;20020;-67
2021/04/28 04:00:14;;;;;;;3.13;1.57;;;;;;;;;;5090958;28;20012;-67
2021/04/28 04:02:40;;;;;;;4.27;1.63;;;;;;;;;;5091894;28;20066;-67
2021/04/28 04:05:05;;;;;;;5.00;2.00;;;;;;;;;;5088227;28;20075;-67
2021/04/28 04:07:31;;;;;;;4.50;1.70;;;;;;;;;;5092503;28;20107;-67
2021/04/28 04:09:56;;;;;;;6.83;1.73;;;;;;;;;;5090262;28;20012;-67
2021/04/28 04:12:21;;;;;;;4.83;1.90;;;;;;;;;;5090149;28;20590;-67
2021/04/28 04:14:47;;;;;;;3.73;1.60;;;;;;;;;;5091828;28;20016;-67
2021/04/28 04:17:12;;;;;;;4.50;1.60;;;;;;;;;;5089263;28;19912;-67
2021/04/28 04:19:37;;;;;;;5.37;1.63;;;;;;;;;;5083840;28;20164;-67
2021/04/28 04:22:03;;;;;;;4.70;1.70;;;;;;;;;;5089110;28;20024;-67
2021/04/28 04:24:28;;;;;;;7.97;1.70;;;;;;;;;;5085696;28;20017;-68
2021/04/28 04:26:53;;;;;;;5.90;2.20;;;;;;;;;;5091445;28;20028;-67
2021/04/28 04:29:18;;;;;;;4.53;2.00;;;;;;;;;;5091253;28;20067;-67
2021/04/28 04:31:44;;;;;;;5.17;1.73;;;;;;;;;;5091761;28;20081;-67
2021/04/28 04:34:09;;;;;;;4.73;1.63;;;;;;;;;;5091606;28;20678;-67
2021/04/28 04:36:34;;;;;;;3.43;1.73;;;;;;;;;;5088097;28;20043;-67
2021/04/28 04:38:59;;;;;;;4.50;1.97;;;;;;;;;;5082410;28;20357;-67
2021/04/28 04:41:26;;;;;;;8.77;1.97;;;;;;;;;;5090583;28;20091;-67
2021/04/28 04:43:51;;;;;;;5.57;1.77;;;;;;;;;;5091547;28;20020;-67
2021/04/28 04:46:16;;;;;;;4.93;1.87;;;;;;;;;;5090697;28;20265;-67
2021/04/28 04:48:42;;;;;;;4.67;1.70;;;;;;;;;;5095150;28;20333;-67
2021/04/28 04:51:07;;;;;;;5.53;1.93;;;;;;;;;;5094252;28;20050;-67
2021/04/28 04:53:32;;;;;;;5.27;2.10;;;;;;;;;;5095222;28;20024;-67
2021/04/28 04:55:57;;;;;;;4.07;1.80;;;;;;;;;;5094374;28;20039;-68
2021/04/28 04:58:23;;;;;;;4.53;1.97;;;;;;;;;;5095278;28;20510;-69
2021/04/28 05:00:48;;;;;;;4.83;2.30;;;;;;;;;;5094446;28;20016;-70
2021/04/28 05:03:13;;;;;;;3.87;1.90;;;;;;;;;;5095233;28;20022;-70
2021/04/28 05:05:39;;;;;;;4.30;1.80;;;;;;;;;;5093461;28;20047;-69
2021/04/28 05:08:05;;;;;;;5.40;2.00;;;;;;;;;;5095392;28;20020;-70
2021/04/28 05:10:30;;;;;;;4.57;1.60;;;;;;;;;;5093644;28;20069;-70
2021/04/28 05:12:55;;;;;;;5.13;1.73;;;;;;;;;;5095107;28;20048;-70
2021/04/28 05:15:20;;;;;;;4.60;1.80;;;;;;;;;;5094003;28;20024;-70
2021/04/28 05:17:46;;;;;;;4.80;1.87;;;;;;;;;;5094352;28;20381;-70
2021/04/28 05:20:12;;;;;;;6.07;2.50;;;;;;;;;;5075980;28;20086;-70
2021/04/28 05:22:37;;;;;;;4.77;2.17;;;;;;;;;;5090347;28;20415;-70
2021/04/28 05:25:04;;;;;;;7.57;1.90;;;;;;;;;;5099034;28;20016;-70
2021/04/28 05:27:29;;;;;;;5.30;1.93;;;;;;;;;;5093703;28;20024;-70
2021/04/28 05:29:54;;;;;;;4.23;1.50;;;;;;;;;;5076352;28;20024;-70
2021/04/28 05:32:20;;;;;;;3.80;1.73;;;;;;;;;;5090180;28;20035;-71
2021/04/28 05:34:45;;;;;;;5.10;1.93;;;;;;;;;;5092697;28;20099;-71
2021/04/28 05:37:12;;;;;;;6.60;2.40;;;;;;;;;;5093407;28;20043;-72
2021/04/28 05:39:38;;;;;;;4.80;1.90;;;;;;;;;;5092258;28;20027;-71
2021/04/28 05:42:03;;;;;;;6.77;2.67;;;;;;;;;;5093569;28;20020;-72
2021/04/28 05:44:29;;;;;;;7.43;1.83;;;;;;;;;;5094600;28;20085;-72
2021/04/28 05:46:54;;;;;;;5.00;1.80;;;;;;;;;;5091985;28;20510;-72
2021/04/28 05:49:19;;;;;;;4.00;1.63;;;;;;;;;;5086974;28;20032;-73
2021/04/28 05:51:44;;;;;;;11.17;2.53;;;;;;;;;;5090414;28;20028;-73
2021/04/28 05:54:10;;;;;;;4.83;1.90;;;;;;;;;;5086255;28;20070;-72
2021/04/28 05:56:39;;;;;;;5.70;2.10;;;;;;;;;;5092848;28;20488;-72
2021/04/28 05:59:04;;;;;;;4.70;1.97;;;;;;;;;;5091889;28;20024;-73
2021/04/28 06:01:29;;;;;;;5.83;2.13;;;;;;;;;;5083691;28;20035;-73
2021/04/28 06:03:54;;;;;;;4.20;1.80;;;;;;;;;;5092464;28;20488;-73
2021/04/28 06:06:20;;;;;;;5.07;2.00;;;;;;;;;;5091028;28;20491;-73
2021/04/28 06:08:45;;;;;;;7.63;2.30;;;;;;;;;;5075446;28;20119;-73
2021/04/28 06:11:11;;;;;;;6.43;1.90;;;;;;;;;;5091709;28;20028;-73
2021/04/28 06:13:36;;;;;;;5.10;1.90;;;;;;;;;;5093591;28;20028;-73
2021/04/28 06:16:02;;;;;;;8.07;2.70;;;;;;;;;;5091838;28;20036;-73
2021/04/28 06:18:28;;;;;;;4.10;1.70;;;;;;;;;;5093335;28;20103;-74
2021/04/28 06:20:53;;;;;;;4.67;2.00;;;;;;;;;;5087354;28;21047;-74
2021/04/28 06:23:18;;;;;;;7.70;2.17;;;;;;;;;;5089017;28;20028;-74
2021/04/28 06:25:45;;;;;;;6.40;2.60;;;;;;;;;;5067395;28;20031;-74
2021/04/28 06:28:10;;;;;;;6.13;2.20;;;;;;;;;;5089604;28;20028;-74
2021/04/28 06:30:35;;;;;;;5.47;2.40;;;;;;;;;;5087539;28;20206;-74
2021/04/28 06:33:00;;;;;;;4.23;1.83;;;;;;;;;;5091461;28;20415;-74
2021/04/28 06:35:26;;;;;;;4.20;1.80;;;;;;;;;;5092855;28;20427;-74
2021/04/28 06:37:51;;;;;;;6.80;2.13;;;;;;;;;;5092403;28;20028;-74
2021/04/28 06:40:16;;;;;;;7.27;2.00;;;;;;;;;;5091806;28;20032;-74
2021/04/28 06:42:41;;;;;;;5.40;1.83;;;;;;;;;;5092068;28;20437;-74
2021/04/28 06:45:07;;;;;;;7.73;2.10;;;;;;;;;;5088887;28;20079;-73
2021/04/28 06:47:32;;;;;;;4.53;1.80;;;;;;;;;;5093421;28;20032;-74
2021/04/28 06:49:58;;;;;;;5.63;2.00;;;;;;;;;;5091981;28;20457;-74
2021/04/28 06:52:23;;;;;;;5.13;1.87;;;;;;;;;;5091240;28;20027;-74
2021/04/28 06:54:48;;;;;;;4.47;2.00;;;;;;;;;;5091752;28;20548;-74
2021/04/28 06:57:13;;;;;;;5.20;2.10;;;;;;;;;;5092628;28;20028;-74
2021/04/28 06:59:39;;;;;;;5.03;2.20;;;;;;;;;;5091931;28;20043;-74
2021/04/28 07:02:04;;;;;;;5.60;1.90;;;;;;;;;;5092031;28;20373;-74
2021/04/28 07:04:29;;;;;;;7.67;2.17;;;;;;;;;;5092160;28;20052;-75
2021/04/28 07:06:55;;;;;;;5.93;2.23;;;;;;;;;;5092141;28;20085;-74
2021/04/28 07:09:20;;;;;;;7.27;2.50;;;;;;;;;;5092250;28;20024;-74
2021/04/28 07:11:45;;;;;;;6.80;2.13;;;;;;;;;;5072501;28;20031;-74
2021/04/28 07:14:11;;;;;;;5.33;2.17;;;;;;;;;;5083893;28;20464;-74
2021/04/28 07:16:36;;;;;;;6.50;2.20;;;;;;;;;;5091721;28;20032;-74
2021/04/28 07:19:02;;;;;;;6.63;2.40;;;;;;;;;;5092729;28;20109;-74
2021/04/28 07:21:27;;;;;;;6.37;2.30;;;;;;;;;;5073710;28;20460;-74
2021/04/28 07:23:52;;;;;;;5.87;1.97;;;;;;;;;;5093199;28;20115;-74
2021/04/28 07:26:18;;;;;;;5.40;1.60;;;;;;;;;;5094374;28;20012;-74
2021/04/28 07:28:48;;;;;;;4.40;2.13;;;;;;;;;;5091943;28;20035;-73
2021/04/28 07:31:14;;;;;;;5.73;1.97;;;;;;;;;;5092186;28;20028;-72
2021/04/28 07:33:39;;;;;;;6.43;2.27;;;;;;;;;;5091872;28;20532;-72
2021/04/28 07:36:04;;;;;;;6.77;2.07;;;;;;;;;;5084271;28;20062;-72
2021/04/28 07:38:30;;;;;;;5.63;2.30;;;;;;;;;;5089094;28;20375;-71
2021/04/28 07:40:55;;;;;;;4.30;2.03;;;;;;;;;;5091658;28;20069;-70
2021/04/28 07:43:20;;;;;;;5.67;2.13;;;;;;;;;;5091848;28;20099;-70
2021/04/28 07:45:45;;;;;;;7.83;2.17;;;;;;;;;;5091612;28;20361;-71
2021/04/28 07:48:12;;;;;;;6.20;2.50;;;;;;;;;;5083749;28;20016;-71
2021/04/28 07:50:38;;;;;;;4.20;2.10;;;;;;;;;;5091495;28;20069;-71
2021/04/28 07:53:03;;;;;;;5.63;2.73;;;;;;;;;;5092290;28;20023;-72
2021/04/28 07:55:30;;;;;;;4.40;2.03;;;;;;;;;;5091149;28;20027;-72
2021/04/28 07:57:56;;;;;;;5.70;2.57;;;;;;;;;;5091868;28;20416;-73
2021/04/28 08:00:21;;;;;;;19.77;2.80;;;;;;;;;;5091500;28;20012;-74
2021/04/28 08:02:47;;;;;;;4.83;2.40;;;;;;;;;;5078758;28;20024;-74
2021/04/28 08:05:12;;;;;;;6.50;2.60;;;;;;;;;;5090505;28;20043;-73
2021/04/28 08:07:37;;;;;;;7.73;2.50;;;;;;;;;;5091624;28;20023;-74
2021/04/28 08:10:04;;;;;;;5.80;2.40;;;;;;;;;;5091002;28;20297;-74
2021/04/28 08:12:29;;;;;;;5.87;2.40;;;;;;;;;;5091426;28;20360;-74
2021/04/28 08:14:55;;;;;;;4.80;2.13;;;;;;;;;;5091497;28;20103;-74
2021/04/28 08:17:20;;;;;;;4.63;2.20;;;;;;;;;;5088420;28;20545;-74
2021/04/28 08:19:45;;;;;;;6.03;2.60;;;;;;;;;;5084953;28;20484;-73
2021/04/28 08:22:11;;;;;;;6.07;2.70;;;;;;;;;;5091008;28;20099;-74
2021/04/28 08:24:36;;;;;;;6.03;2.47;;;;;;;;;;5088520;28;20020;-74
2021/04/28 08:27:01;;;;;;;6.97;2.93;;;;;;;;;;5091981;28;20035;-74
2021/04/28 08:29:26;;;;;;;7.43;2.50;;;;;;;;;;5093991;28;20032;-73
2021/04/28 08:31:52;;;;;;;6.97;2.70;;;;;;;;;;5094649;28;20031;-73
2021/04/28 08:34:17;;;;;;;6.47;2.80;;;;;;;;;;5095768;28;20027;-73
2021/04/28 08:36:42;;;;;;;5.87;2.73;;;;;;;;;;5094432;28;20028;-73
2021/04/28 08:39:08;;;;;;;5.50;2.67;;;;;;;;;;5095647;28;20031;-73
2021/04/28 08:41:34;;;;;;;6.07;2.67;;;;;;;;;;5094954;28;20103;-73
2021/04/28 08:44:02;;;;;;;5.47;2.60;;;;;;;;;;5087779;28;20111;-73
2021/04/28 08:46:27;;;;;;;8.37;2.73;;;;;;;;;;5082239;28;20031;-72
2021/04/28 08:48:53;;;;;;;6.67;3.10;;;;;;;;;;5095355;28;20032;-73
2021/04/28 08:51:19;;;;;;;6.00;2.70;;;;;;;;;;5094092;28;20031;-73
2021/04/28 08:53:44;;;;;;;5.83;2.77;;;;;;;;;;5094954;28;20032;-73
2021/04/28 08:56:09;;;;;;;7.10;3.37;;;;;;;;;;5093755;28;20380;-73
2021/04/28 08:58:35;;;;;;;6.75;2.90;;;;;;;;;;5094607;28;20472;-73
2021/04/28 09:01:00;;;;;;;6.32;2.95;;;;;;;;;;5094830;28;20421;-73
2021/04/28 09:03:42;;;;;;;6.80;2.65;;;;;;;;;;5094700;28;20020;-73
2021/04/28 09:06:27;;;;;;;7.40;2.83;;;;;;;;;;5092127;28;20440;-73
2021/04/28 09:08:53;;;;;;;5.88;2.75;;;;;;;;;;5086238;28;20058;-73
2021/04/28 09:11:35;;;;;;;7.60;3.20;;;;;;;;;;5093237;28;20520;-73
2021/04/28 09:14:12;;;;;;;5.30;2.58;;;;;;;;;;5090565;28;20024;-72
2021/04/28 09:16:38;;;;;;;6.35;2.50;;;;;;;;;;5092801;28;20028;-73
2021/04/28 09:19:04;;;;;;;5.35;2.65;;;;;;;;;;5094132;28;20024;-73
2021/04/28 09:21:53;;;;;;;6.53;3.20;;;;;;;;;;5094155;28;20035;-72
2021/04/28 09:24:20;;;;;;;6.55;3.10;;;;;;;;;;5094982;28;20102;-73
2021/04/28 09:26:45;;;;;;;12.18;3.42;;;;;;;;;;5088407;28;20032;-73
2021/04/28 09:29:15;;;;;;;6.85;3.13;;;;;;;;;;5083082;28;20031;-72
2021/04/28 09:31:52;;;;;;;6.25;3.10;;;;;;;;;;5091242;28;20047;-72
2021/04/28 09:34:24;;;;;;;7.38;2.88;;;;;;;;;;5089580;28;20028;-72
2021/04/28 09:36:58;;;;;;;6.13;3.00;;;;;;;;;;5091860;28;20321;-72
2021/04/28 09:39:23;;;;;;;6.03;3.10;;;;;;;;;;5078072;28;20063;-72
2021/04/28 09:41:51;;;;;;;7.28;3.00;;;;;;;;;;5090549;28;20055;-72
2021/04/28 09:44:17;;;;;;;6.60;2.95;;;;;;;;;;5090443;28;20384;-71
2021/04/28 09:46:59;;;;;;;7.03;2.78;;;;;;;;;;5093704;28;20024;-72
2021/04/28 09:49:25;;;;;;;4.90;2.75;;;;;;;;;;5083858;28;20480;-72
2021/04/28 09:51:59;;;;;;;10.00;3.00;;;;;;;;;;5092515;28;20100;-72
2021/04/28 09:54:29;;;;;;;6.40;3.10;;;;;;;;;;5089785;28;20035;-72
2021/04/28 09:56:54;;;;;;;7.78;3.38;;;;;;;;;;5075434;28;20030;-72
2021/04/28 09:59:20;;;;;;;7.40;3.10;;;;;;;;;;5093402;28;20090;-72
2021/04/28 10:01:45;;;;;;;6.70;3.55;;;;;;;;;;5092226;28;20027;-72
2021/04/28 10:04:10;;;;;;;6.57;3.47;;;;;;;;;;5092323;28;20119;-72
2021/04/28 10:06:39;;;;;;;6.45;3.55;;;;;;;;;;5092567;28;20028;-71
2021/04/28 10:09:06;;;;;;;7.30;3.20;;;;;;;;;;5087610;28;20035;-70
2021/04/28 10:11:32;;;;;;;8.65;3.70;;;;;;;;;;5090680;28;20376;-71
2021/04/28 10:13:57;;;;;;;7.05;3.95;;;;;;;;;;5092561;28;20027;-71
2021/04/28 10:16:22;;;;;;;6.22;3.20;;;;;;;;;;5073729;28;20484;-70
2021/04/28 10:18:48;;;;;;;7.95;3.50;;;;;;;;;;5087526;28;20024;-71
2021/04/28 10:21:13;;;;;;;7.47;3.50;;;;;;;;;;5092143;28;20095;-70
2021/04/28 10:23:39;;;;;;;6.80;3.55;;;;;;;;;;5090100;28;20693;-70
2021/04/28 10:26:04;;;;;;;8.10;3.22;;;;;;;;;;5091248;28;20024;-70
2021/04/28 10:28:30;;;;;;;7.72;3.83;;;;;;;;;;5089388;28;20055;-70
2021/04/28 10:30:56;;;;;;;8.38;4.25;;;;;;;;;;5089431;28;20103;-69
2021/04/28 10:33:25;;;;;;;10.48;3.42;;;;;;;;;;5090021;28;20027;-69
2021/04/28 10:35:51;;;;;;;7.43;3.70;;;;;;;;;;5090723;28;20023;-69
2021/04/28 10:38:20;;;;;;;9.88;3.97;;;;;;;;;;5089254;28;20020;-69
2021/04/28 10:40:48;;;;;;;7.95;4.00;;;;;;;;;;5088493;28;20016;-69
2021/04/28 10:43:17;;;;;;;7.90;3.95;;;;;;;;;;5091082;28;20020;-70
2021/04/28 10:45:42;;;;;;;7.88;3.90;;;;;;;;;;5083088;28;20030;-69
2021/04/28 10:48:11;;;;;;;10.18;4.13;;;;;;;;;;5091569;28;20024;-69
2021/04/28 10:50:42;;;;;;;9.93;4.35;;;;;;;;;;5088421;28;20447;-69
2021/04/28 10:53:17;;;;;;;8.30;3.85;;;;;;;;;;5089473;28;20024;-69
2021/04/28 10:55:44;;;;;;;11.18;4.55;;;;;;;;;;5097523;28;20125;-69
2021/04/28 10:58:25;;;;;;;8.60;4.38;;;;;;;;;;5093032;28;20392;-69
2021/04/28 11:00:59;;;;;;;8.85;4.53;;;;;;;;;;5091748;28;20476;-69
2021/04/28 11:03:28;;;;;;;10.73;4.20;;;;;;;;;;5103955;28;20015;-69
2021/04/28 11:05:54;;;;;;;10.82;4.72;;;;;;;;;;5097890;28;20069;-69
2021/04/28 11:08:28;;;;;;;10.38;4.53;;;;;;;;;;5087059;28;20034;-68
2021/04/28 11:10:53;;;;;;;9.15;4.30;;;;;;;;;;5091551;28;20024;-68
2021/04/28 11:13:18;;;;;;;10.25;4.55;;;;;;;;;;5092265;28;20033;-68
2021/04/28 11:15:52;;;;;;;9.38;4.32;;;;;;;;;;5091958;28;20032;-69
2021/04/28 11:18:32;;;;;;;7.72;4.03;;;;;;;;;;5092249;28;20490;-68
2021/04/28 11:21:25;;;;;;;9.90;4.60;;;;;;;;;;5091787;28;20035;-68
2021/04/28 11:24:16;;;;;;;9.73;4.57;;;;;;;;;;5091914;28;20024;-68
2021/04/28 11:26:46;;;;;;;8.23;4.40;;;;;;;;;;5086349;28;20574;-68
2021/04/28 11:29:11;;;;;;;8.43;4.22;;;;;;;;;;5092015;28;20322;-68
2021/04/28 11:31:46;;;;;;;9.65;4.50;;;;;;;;;;5086982;28;20031;-68
2021/04/28 11:34:23;;;;;;;9.43;4.63;;;;;;;;;;5084457;28;20035;-68
2021/04/28 11:36:49;;;;;;;8.65;4.47;;;;;;;;;;5087359;28;20373;-68
2021/04/28 11:39:31;;;;;;;11.50;5.10;;;;;;;;;;5090266;28;20027;-68
2021/04/28 11:42:29;;;;;;;10.45;4.55;;;;;;;;;;5087003;28;20032;-67
2021/04/28 11:44:57;;;;;;;10.88;4.95;;;;;;;;;;5032757;28;20047;-68
2021/04/28 11:47:23;;;;;;;9.18;4.50;;;;;;;;;;5089722;28;20032;-69
2021/04/28 11:49:50;;;;;;;12.60;4.70;;;;;;;;;;5088643;28;20043;-66
2021/04/28 11:52:16;;;;;;;8.55;4.70;;;;;;;;;;5090904;28;20240;-65
2021/04/28 11:54:42;;;;;;;8.15;4.22;;;;;;;;;;5091996;28;20024;-66
2021/04/28 11:57:08;;;;;;;8.77;4.60;;;;;;;;;;5092215;28;20467;-68
2021/04/28 11:59:35;;;;;;;9.43;4.50;;;;;;;;;;5094046;28;20024;-67
2021/04/28 12:02:05;;;;;;;9.35;4.97;;;;;;;;;;5085806;28;20024;-66
2021/04/28 12:04:30;;;;;;;9.20;4.93;;;;;;;;;;5093030;28;20036;-66
2021/04/28 12:06:56;;;;;;;9.23;4.70;;;;;;;;;;5086118;28;20431;-66
2021/04/28 12:09:38;;;;;;;11.18;5.10;;;;;;;;;;5087446;28;20062;-65
2021/04/28 12:12:20;;;;;;;12.52;4.80;;;;;;;;;;5090610;28;20020;-66
2021/04/28 12:14:49;;;;;;;8.57;4.57;;;;;;;;;;5092381;28;20489;-66
2021/04/28 12:17:19;;;;;;;11.63;5.20;;;;;;;;;;5090073;28;20426;-66
2021/04/28 12:19:46;;;;;;;8.77;4.35;;;;;;;;;;5092458;28;20020;-66
2021/04/28 12:22:11;;;;;;;8.57;4.38;;;;;;;;;;5091984;28;20111;-66
2021/04/28 12:24:41;;;;;;;10.77;5.13;;;;;;;;;;5092681;28;20122;-66
2021/04/28 12:27:06;;;;;;;9.27;4.93;;;;;;;;;;5091983;28;20019;-66
2021/04/28 12:29:32;;;;;;;10.18;5.00;;;;;;;;;;5093320;28;20024;-66
2021/04/28 12:31:57;;;;;;;9.23;4.68;;;;;;;;;;5093641;28;20469;-65
2021/04/28 12:34:23;;;;;;;9.60;4.10;;;;;;;;;;5093293;28;20031;-65
2021/04/28 12:36:48;;;;;;;10.45;4.47;;;;;;;;;;5089353;28;20020;-66
2021/04/28 12:39:29;;;;;;;10.18;4.90;;;;;;;;;;5091287;28;20051;-66
2021/04/28 12:41:55;;;;;;;9.40;4.78;;;;;;;;;;5091148;28;20020;-66
2021/04/28 12:44:21;;;;;;;11.27;4.82;;;;;;;;;;5089701;28;20020;-65
2021/04/28 12:46:47;;;;;;;8.30;4.60;;;;;;;;;;5091560;28;20338;-66
2021/04/28 12:49:13;;;;;;;14.82;4.65;;;;;;;;;;5089945;28;20077;-65
2021/04/28 12:51:44;;;;;;;11.05;5.20;;;;;;;;;;5089525;28;20058;-66
2021/04/28 12:54:09;;;;;;;8.33;4.67;;;;;;;;;;5085881;28;20028;-66
2021/04/28 12:56:41;;;;;;;9.07;4.90;;;;;;;;;;5083842;28;20278;-66
2021/04/28 12:59:17;;;;;;;14.65;5.15;;;;;;;;;;5088954;28;20379;-65
2021/04/28 13:01:43;;;;;;;8.52;4.53;;;;;;;;;;5092144;28;20020;-65
2021/04/28 13:04:18;;;;;;;8.27;4.60;;;;;;;;;;5091263;28;20126;-66
2021/04/28 13:06:43;;;;;;;11.85;5.28;;;;;;;;;;5092489;28;20024;-65
2021/04/28 13:09:12;;;;;;;9.48;4.80;;;;;;;;;;5092578;28;20047;-65
2021/04/28 13:11:42;;;;;;;10.48;4.75;;;;;;;;;;5091192;28;20016;-65
2021/04/28 13:14:07;;;;;;;11.70;5.03;;;;;;;;;;5093267;28;20321;-65
2021/04/28 13:16:37;;;;;;;12.02;5.07;;;;;;;;;;5088913;28;20020;-65
2021/04/28 13:19:07;;;;;;;11.48;5.32;;;;;;;;;;5091714;28;20027;-65
2021/04/28 13:21:33;;;;;;;12.80;5.25;;;;;;;;;;5090348;28;20028;-65
2021/04/28 13:23:59;;;;;;;9.35;5.28;;;;;;;;;;5090938;28;20028;-65
2021/04/28 13:26:24;;;;;;;9.85;5.15;;;;;;;;;;5093090;28;20157;-64
2021/04/28 13:28:54;;;;;;;8.98;5.05;;;;;;;;;;5092140;28;20019;-65
2021/04/28 13:31:39;;;;;;;12.15;5.10;;;;;;;;;;5091802;28;20032;-65
2021/04/28 13:34:05;;;;;;;11.68;5.65;;;;;;;;;;5085940;28;20077;-65
2021/04/28 13:36:30;;;;;;;11.50;5.35;;;;;;;;;;5088100;28;20406;-65
2021/04/28 13:38:57;;;;;;;9.65;5.05;;;;;;;;;;5091464;28;20534;-64
2021/04/28 13:41:22;;;;;;;11.15;5.80;;;;;;;;;;5091113;28;20016;-66
2021/04/28 13:43:48;;;;;;;10.35;4.88;;;;;;;;;;5081671;28;20028;-65
2021/04/28 13:46:13;;;;;;;9.18;4.90;;;;;;;;;;5082256;28;20063;-64
2021/04/28 13:48:39;;;;;;;12.73;4.95;;;;;;;;;;5090859;28;20393;-64
2021/04/28 13:51:05;;;;;;;10.63;4.63;;;;;;;;;;5088538;28;20387;-64
2021/04/28 13:53:31;;;;;;;9.05;4.60;;;;;;;;;;5090779;28;20024;-64
2021/04/28 13:55:56;;;;;;;9.30;4.97;;;;;;;;;;5091430;28;20035;-64
2021/04/28 13:58:21;;;;;;;8.77;4.72;;;;;;;;;;5091775;28;20024;-64
2021/04/28 14:00:47;;;;;;;11.00;4.95;;;;;;;;;;5090231;28;20368;-64
2021/04/28 14:03:12;;;;;;;7.53;4.40;;;;;;;;;;5088878;28;20020;-65
2021/04/28 14:05:37;;;;;;;6.90;3.78;;;;;;;;;;5085461;28;20489;-64
2021/04/28 14:08:02;;;;;;;7.72;4.25;;;;;;;;;;5078458;28;20073;-65
2021/04/28 14:10:29;;;;;;;8.75;3.95;;;;;;;;;;5079956;28;20060;-64
2021/04/28 14:12:54;;;;;;;8.80;4.30;;;;;;;;;;5084352;28;20024;-64
2021/04/28 14:15:19;;;;;;;8.35;3.65;;;;;;;;;;5079575;28;20118;-64
2021/04/28 14:17:45;;;;;;;7.72;3.90;;;;;;;;;;5083613;28;20028;-64
2021/04/28 14:20:10;;;;;;;9.35;4.60;;;;;;;;;;5091581;28;20023;-64
2021/04/28 14:22:35;;;;;;;9.50;4.70;;;;;;;;;;5080713;28;20469;-64
2021/04/28 14:25:00;;;;;;;10.80;4.93;;;;;;;;;;5088279;28;20039;-64
2021/04/28 14:27:26;;;;;;;9.07;4.40;;;;;;;;;;5080258;28;20032;-64
2021/04/28 14:29:51;;;;;;;9.07;4.63;;;;;;;;;;5079339;28;20376;-64
2021/04/28 14:32:16;;;;;;;7.68;4.20;;;;;;;;;;5085449;28;20032;-64
2021/04/28 14:34:43;;;;;;;11.18;4.30;;;;;;;;;;5090824;28;20463;-64
2021/04/28 14:37:08;;;;;;;8.43;3.58;;;;;;;;;;5082425;28;20055;-67
2021/04/28 14:39:34;;;;;;;8.15;4.43;;;;;;;;;;5086777;28;20055;-65